Time;durP1;ratioP1;P1;durP2;ratioP2;P2;SDS_P1;SDS_P2;PMS_P1;PMS_P2;Temp;Humidity;BMP_temperature;BMP_pressure;BME280_temperature;BME280_humidity;BME280_pressure;Samples;Min_cycle;Max_cycle;Signal;HPM_P1;HPM_P2
2022/09/07 00:00:37;;;;;;;53.75;6.22;;;17.40;99.90;;;;;;5093245;28;20028;-88
2022/09/07 00:03:03;;;;;;;47.75;6.88;;;17.40;99.90;;;;;;5093623;28;20024;-92
2022/09/07 00:05:30;;;;;;;60.63;7.03;;;;;;;;;;5092229;28;20051;-86
2022/09/07 00:07:56;;;;;;;55.97;6.93;;;17.40;99.90;;;;;;5093675;28;20085;-89
2022/09/07 00:10:22;;;;;;;59.67;6.63;;;;;;;;;;5093289;28;20032;-87
2022/09/07 00:12:49;;;;;;;36.42;5.78;;;17.40;99.90;;;;;;5092005;28;20020;-92
2022/09/07 00:15:16;;;;;;;53.75;7.00;;;17.40;99.90;;;;;;5093289;28;20487;-90
2022/09/07 00:17:42;;;;;;;59.65;7.40;;;17.30;99.90;;;;;;5093274;28;20472;-86
2022/09/07 00:20:09;;;;;;;62.30;6.90;;;17.30;99.90;;;;;;5094035;28;20020;-87
2022/09/07 00:22:35;;;;;;;60.08;7.93;;;17.30;99.90;;;;;;5092963;28;20020;-90
2022/09/07 00:25:01;;;;;;;64.15;6.57;;;17.40;99.90;;;;;;5092893;28;20050;-87
2022/09/07 00:27:27;;;;;;;55.22;7.57;;;;;;;;;;5092926;28;20450;-88
2022/09/07 00:29:53;;;;;;;43.45;6.32;;;;;;;;;;5092799;28;20028;-88
2022/09/07 00:32:19;;;;;;;66.90;6.80;;;17.30;99.90;;;;;;5093017;28;20069;-90
2022/09/07 00:34:44;;;;;;;54.45;7.07;;;17.30;99.90;;;;;;5092820;28;20020;-89
2022/09/07 00:37:10;;;;;;;50.83;7.05;;;;;;;;;;5093609;28;20082;-88
2022/09/07 00:39:36;;;;;;;75.93;7.95;;;;;;;;;;5092761;28;20024;-90
2022/09/07 00:42:03;;;;;;;62.08;7.22;;;14.10;99.90;;;;;;5091495;28;20028;-90
2022/09/07 00:44:56;;;;;;;59.80;6.53;;;17.30;99.90;;;;;;5092676;28;20024;-90
2022/09/07 00:47:31;;;;;;;43.63;7.25;;;17.30;99.90;;;;;;5092521;28;20020;-90
2022/09/07 00:50:01;;;;;;;58.97;6.40;;;17.30;99.90;;;;;;5092721;28;20024;-88
2022/09/07 00:52:30;;;;;;;47.85;6.60;;;17.30;99.90;;;;;;5092503;28;20020;-88
2022/09/07 00:54:59;;;;;;;60.20;6.88;;;17.30;99.90;;;;;;5092672;28;20028;-89
2022/09/07 00:57:27;;;;;;;41.72;5.95;;;;;;;;;;5092248;28;20061;-89
2022/09/07 00:59:54;;;;;;;60.70;8.85;;;17.30;99.90;;;;;;5092451;28;20016;-88
2022/09/07 01:02:20;;;;;;;57.33;7.25;;;;;;;;;;5090985;28;20032;-87
2022/09/07 01:04:50;;;;;;;47.13;6.32;;;17.20;99.90;;;;;;5092098;28;20052;-90
2022/09/07 01:07:16;;;;;;;60.63;6.32;;;;;;;;;;5090992;28;20028;-87
2022/09/07 01:09:45;;;;;;;48.45;8.23;;;17.20;99.90;;;;;;5092692;28;20016;-89
2022/09/07 01:12:11;;;;;;;53.78;6.88;;;;;;;;;;5093251;28;20027;-88
2022/09/07 01:14:43;;;;;;;33.72;6.78;;;17.20;99.90;;;;;;5092147;28;20027;-89
2022/09/07 01:17:24;;;;;;;50.92;6.18;;;17.10;99.90;;;;;;5091894;28;20028;-90
2022/09/07 01:19:59;;;;;;;54.10;6.22;;;17.10;99.90;;;;;;5092171;28;20103;-89
2022/09/07 01:22:58;;;;;;;47.42;7.18;;;17.00;99.90;;;;;;5092173;28;20028;-88
2022/09/07 01:25:25;;;;;;;59.80;7.03;;;;;;;;;;5090925;28;20028;-89
2022/09/07 01:28:09;;;;;;;53.10;6.78;;;17.00;99.90;;;;;;5092020;28;20024;-90
2022/09/07 01:30:38;;;;;;;61.25;6.55;;;16.90;99.90;;;;;;5091913;28;20073;-89
2022/09/07 01:33:04;;;;;;;36.20;5.95;;;;;;;;;;5091651;28;20031;-91
2022/09/07 01:35:54;;;;;;;62.10;6.20;;;16.90;99.90;;;;;;5091599;28;20035;-88
2022/09/07 01:38:39;;;;;;;45.47;6.15;;;16.90;99.90;;;;;;5091475;28;20050;-87
2022/09/07 01:41:21;;;;;;;55.83;6.63;;;16.90;99.90;;;;;;5092095;28;20342;-90
2022/09/07 01:43:59;;;;;;;54.35;7.60;;;16.90;99.90;;;;;;5090803;28;20020;-89
2022/09/07 01:46:33;;;;;;;44.03;6.05;;;16.90;99.90;;;;;;5098193;28;20032;-88
2022/09/07 01:49:20;;;;;;;54.72;6.95;;;16.90;99.90;;;;;;5099479;28;20024;-90
2022/09/07 01:51:50;;;;;;;57.55;6.18;;;16.90;99.90;;;;;;5109527;28;20012;-87
2022/09/07 01:54:21;;;;;;;57.28;6.57;;;16.80;99.90;;;;;;5099664;28;20099;-91
2022/09/07 01:56:52;;;;;;;54.95;6.68;;;16.80;99.90;;;;;;5090463;28;20115;-88
2022/09/07 01:59:32;;;;;;;64.05;7.30;;;16.80;99.90;;;;;;5091405;28;20387;-91
2022/09/07 02:02:08;;;;;;;58.85;6.85;;;16.80;99.90;;;;;;5090821;28;20023;-87
2022/09/07 02:04:42;;;;;;;57.30;6.55;;;16.80;99.90;;;;;;5090945;28;20028;-90
2022/09/07 02:07:19;;;;;;;52.45;7.88;;;16.80;99.90;;;;;;5090952;28;20020;-88
2022/09/07 02:10:07;;;;;;;60.95;7.22;;;16.80;99.90;;;;;;5091833;28;20016;-91
2022/09/07 02:13:11;;;;;;;59.38;8.32;;;16.80;99.90;;;;;;5090951;28;20043;-90
2022/09/07 02:15:37;;;;;;;50.92;6.40;;;;;;;;;;5053316;28;20460;-91
2022/09/07 02:18:05;;;;;;;65.80;7.22;;;16.90;99.90;;;;;;5090886;28;20036;-90
2022/09/07 02:20:35;;;;;;;56.85;6.70;;;16.80;99.90;;;;;;5090647;28;20024;-87
2022/09/07 02:23:07;;;;;;;65.15;7.18;;;16.80;99.90;;;;;;5090098;28;20054;-90
2022/09/07 02:25:41;;;;;;;61.40;8.88;;;16.80;99.90;;;;;;5090752;28;20027;-87
2022/09/07 02:28:12;;;;;;;62.13;7.25;;;16.80;99.90;;;;;;5090404;28;20028;-89
2022/09/07 02:30:39;;;;;;;60.08;6.32;;;;;;;;;;5089270;28;20048;-90
2022/09/07 02:33:05;;;;;;;57.65;8.68;;;16.80;99.90;;;;;;5089359;28;20547;-87
2022/09/07 02:35:31;;;;;;;68.93;8.35;;;;;;;;;;5090628;28;20027;-88
2022/09/07 02:38:02;;;;;;;54.33;6.43;;;16.90;99.90;;;;;;5090410;28;20036;-90
2022/09/07 02:40:28;;;;;;;74.57;8.05;;;;;;;;;;5090383;28;20452;-90
2022/09/07 02:42:55;;;;;;;51.15;7.88;;;;;;;;;;5090569;28;20499;-91
2022/09/07 02:45:21;;;;;;;80.80;8.05;;;;;;;;;;5090572;28;20048;-90
2022/09/07 02:48:08;;;;;;;63.80;6.70;;;16.80;99.90;;;;;;5090914;28;20063;-87
2022/09/07 02:51:06;;;;;;;47.05;6.95;;;16.80;99.90;;;;;;5088554;28;20024;-87
2022/09/07 02:53:50;;;;;;;46.33;6.72;;;16.80;99.90;;;;;;5088767;28;20434;-90
2022/09/07 02:56:46;;;;;;;60.83;8.85;;;16.80;99.90;;;;;;5091032;28;20008;-87
2022/09/07 02:59:12;;;;;;;67.88;8.50;;;;;;;;;;5089960;28;20032;-87
2022/09/07 03:01:52;;;;;;;49.67;6.93;;;16.80;99.90;;;;;;5089822;28;20363;-87
2022/09/07 03:04:24;;;;;;;61.38;7.65;;;16.90;99.90;;;;;;5090805;28;20060;-90
2022/09/07 03:07:16;;;;;;;67.80;7.70;;;16.90;99.90;;;;;;5090632;28;20110;-87
2022/09/07 03:09:48;;;;;;;51.45;7.20;;;16.90;99.90;;;;;;5090116;28;20027;-88
2022/09/07 03:12:14;;;;;;;54.50;7.88;;;16.90;99.90;;;;;;5089940;28;20040;-88
2022/09/07 03:14:41;;;;;;;42.03;6.90;;;16.90;99.90;;;;;;5089721;28;20248;-88
2022/09/07 03:17:08;;;;;;;56.13;7.22;;;16.90;99.90;;;;;;5089470;28;20110;-87
2022/09/07 03:19:34;;;;;;;61.10;6.97;;;;;;;;;;5089464;28;20399;-88
2022/09/07 03:22:00;;;;;;;53.13;6.57;;;;;;;;;;5089631;28;20024;-89
2022/09/07 03:24:25;;;;;;;59.75;7.25;;;17.10;99.90;;;;;;5089432;28;20103;-87
2022/09/07 03:26:51;;;;;;;56.88;8.18;;;17.10;99.90;;;;;;5089643;28;20534;-89
2022/09/07 03:29:17;;;;;;;61.17;7.00;;;17.10;99.90;;;;;;5090241;28;20505;-88
2022/09/07 03:31:43;;;;;;;66.45;7.50;;;17.10;99.90;;;;;;5089487;28;20024;-89
2022/09/07 03:34:10;;;;;;;75.70;7.70;;;;;;;;;;5089345;28;20030;-89
2022/09/07 03:36:36;;;;;;;61.03;7.13;;;;;;;;;;5089250;28;20028;-90
2022/09/07 03:39:03;;;;;;;44.78;7.75;;;17.10;99.90;;;;;;5089858;28;20036;-89
2022/09/07 03:41:29;;;;;;;57.38;7.85;;;;;;;;;;5089616;28;20024;-88
2022/09/07 03:43:55;;;;;;;71.28;8.77;;;;;;;;;;5088497;28;20043;-91
2022/09/07 03:46:22;;;;;;;62.90;6.80;;;;;;;;;;5089207;28;20477;-87
2022/09/07 03:48:49;;;;;;;68.97;7.88;;;17.20;99.90;;;;;;5090304;28;20052;-89
2022/09/07 03:51:17;;;;;;;73.38;8.23;;;17.20;99.90;;;;;;5088429;28;20031;-91
2022/09/07 03:53:44;;;;;;;65.95;7.20;;;17.20;99.90;;;;;;5088324;28;20056;-88
2022/09/07 03:56:17;;;;;;;58.50;6.85;;;17.20;99.90;;;;;;5088277;28;20035;-89
2022/09/07 03:58:43;;;;;;;52.55;6.63;;;17.10;99.90;;;;;;5090110;28;20217;-94
2022/09/07 04:01:12;;;;;;;46.88;7.03;;;17.10;99.90;;;;;;5090119;28;20018;-88
2022/09/07 04:03:38;;;;;;;;;;;17.10;99.90;;;;;;5088745;28;20463;-90
2022/09/07 04:06:04;;;;;;;50.63;6.50;;;;;;;;;;5088166;28;19911;-90
2022/09/07 04:08:32;;;;;;;56.25;7.25;;;17.00;99.90;;;;;;5089625;28;20060;-86
2022/09/07 04:11:00;;;;;;;43.83;6.00;;;17.00;99.90;;;;;;5088628;28;20031;-93
2022/09/07 04:13:26;;;;;;;70.10;9.43;;;17.00;99.90;;;;;;5089779;28;20107;-91
2022/09/07 04:15:52;;;;;;;55.80;7.80;;;17.00;99.90;;;;;;5089606;28;20077;-95
2022/09/07 04:18:19;;;;;;;60.47;7.07;;;;;;;;;;5091498;28;20119;-89
2022/09/07 04:20:45;;;;;;;67.28;7.47;;;;;;;;;;5090483;28;20504;-86
2022/09/07 04:23:11;;;;;;;77.60;7.93;;;;;;;;;;5090080;28;20539;-88
2022/09/07 04:25:38;;;;;;;65.63;7.03;;;;;;;;;;5088462;28;20103;-87
2022/09/07 04:28:04;;;;;;;77.95;8.23;;;;;;;;;;5090929;28;20036;-87
2022/09/07 04:30:30;;;;;;;70.13;8.20;;;;;;;;;;5102798;28;20060;-86
2022/09/07 04:32:56;;;;;;;76.03;8.18;;;;;;;;;;5105795;28;20023;-86
2022/09/07 04:35:22;;;;;;;63.78;7.22;;;;;;;;;;5100551;28;20035;-91
2022/09/07 04:37:48;;;;;;;69.30;8.55;;;;;;;;;;5092701;28;20044;-93
2022/09/07 04:40:14;;;;;;;62.10;6.63;;;;;;;;;;5091485;28;20020;-91
2022/09/07 04:42:40;;;;;;;46.20;6.88;;;;;;;;;;5088630;28;20526;-88
2022/09/07 04:45:06;;;;;;;56.65;6.65;;;17.00;99.90;;;;;;5090690;28;20020;-86
2022/09/07 04:47:32;;;;;;;68.45;6.90;;;;;;;;;;5091692;28;20027;-89
2022/09/07 04:49:58;;;;;;;74.68;7.55;;;;;;;;;;5092994;28;20024;-92
2022/09/07 04:52:24;;;;;;;68.95;7.38;;;16.90;99.90;;;;;;5093476;28;20122;-87
2022/09/07 04:54:50;;;;;;;63.50;6.90;;;16.90;99.90;;;;;;5092590;28;20031;-92
2022/09/07 04:57:20;;;;;;;65.78;6.88;;;13.90;99.90;;;;;;5092636;28;20401;-86
2022/09/07 04:59:47;;;;;;;55.60;7.25;;;14.30;99.90;;;;;;5092763;28;20276;-85
2022/09/07 05:02:12;;;;;;;49.80;7.32;;;16.80;99.90;;;;;;5079893;28;20016;-90
2022/09/07 05:04:38;;;;;;;69.15;7.57;;;;;;;;;;5085764;28;20024;-87
2022/09/07 05:07:04;;;;;;;57.22;8.93;;;;;;;;;;5081120;28;20024;-91
2022/09/07 05:09:30;;;;;;;52.92;7.95;;;16.80;99.90;;;;;;5085067;28;20110;-89
2022/09/07 05:11:56;;;;;;;49.90;6.53;;;16.70;99.90;;;;;;5091350;28;20107;-86
2022/09/07 05:14:22;;;;;;;66.65;6.80;;;;;;;;;;5091740;28;20033;-91
2022/09/07 05:16:48;;;;;;;69.38;7.10;;;;;;;;;;5091425;28;20022;-90
2022/09/07 05:19:14;;;;;;;49.30;7.38;;;;;;;;;;5089348;28;20119;-85
2022/09/07 05:21:40;;;;;;;54.88;7.10;;;16.70;99.90;;;;;;5091501;28;20028;-85
2022/09/07 05:24:06;;;;;;;68.80;7.43;;;16.70;99.90;;;;;;5090244;28;20373;-86
2022/09/07 05:26:35;;;;;;;64.15;7.32;;;16.70;99.90;;;;;;5090064;28;20027;-91
2022/09/07 05:29:01;;;;;;;57.38;8.43;;;;;;;;;;5091573;28;20099;-90
2022/09/07 05:31:28;;;;;;;79.65;7.55;;;16.70;99.90;;;;;;5091742;28;20028;-86
2022/09/07 05:33:57;;;;;;;71.72;7.80;;;16.70;99.90;;;;;;5091177;28;20081;-92
2022/09/07 05:36:25;;;;;;;71.25;7.97;;;16.70;99.90;;;;;;5091885;28;20144;-86
2022/09/07 05:38:55;;;;;;;67.35;7.68;;;16.80;99.90;;;;;;5091146;28;20036;-89
2022/09/07 05:41:25;;;;;;;64.43;9.27;;;16.80;99.90;;;;;;5091221;28;20024;-90
2022/09/07 05:43:52;;;;;;;73.90;7.35;;;16.80;99.90;;;;;;5089886;28;20047;-86
2022/09/07 05:46:18;;;;;;;66.15;7.75;;;16.70;99.90;;;;;;5089362;28;20240;-88
2022/09/07 05:48:44;;;;;;;53.45;6.45;;;16.80;99.90;;;;;;5091064;28;20548;-90
2022/09/07 05:51:12;;;;;;;70.47;7.95;;;16.80;99.90;;;;;;5091820;28;20641;-89
2022/09/07 05:53:40;;;;;;;62.53;7.22;;;16.80;99.90;;;;;;5099616;28;20491;-91
2022/09/07 05:56:07;;;;;;;45.58;7.90;;;16.80;99.90;;;;;;5111744;27;20028;-87
2022/09/07 05:58:33;;;;;;;56.72;6.80;;;16.80;99.90;;;;;;5106826;28;20035;-92
2022/09/07 06:01:00;;;;;;;78.43;7.50;;;16.80;99.90;;;;;;5091067;28;20020;-86
2022/09/07 06:03:27;;;;;;;66.85;9.20;;;;;;;;;;5091452;28;20028;-87
2022/09/07 06:06:07;;;;;;;55.25;6.25;;;16.80;99.90;;;;;;5089017;28;20032;-88
2022/09/07 06:08:34;;;;;;;61.63;7.05;;;16.90;99.90;;;;;;5089416;28;20024;-87
2022/09/07 06:11:12;;;;;;;83.47;8.93;;;20.20;99.90;;;;;;5095603;28;20086;-86
2022/09/07 06:13:38;;;;;;;50.47;8.52;;;16.90;99.90;;;;;;5109619;28;20441;-87
2022/09/07 06:16:06;;;;;;;65.88;7.25;;;17.00;99.90;;;;;;5109379;28;20037;-88
2022/09/07 06:18:33;;;;;;;57.92;8.10;;;;;;;;;;5111604;28;20035;-88
2022/09/07 06:21:20;;;;;;;62.75;7.45;;;17.00;99.90;;;;;;5112995;28;20016;-87
2022/09/07 06:23:47;;;;;;;55.70;7.40;;;17.00;99.90;;;;;;5111093;28;20027;-87
2022/09/07 06:26:13;;;;;;;65.40;7.60;;;;;;;;;;5102485;27;20028;-90
2022/09/07 06:28:41;;;;;;;62.47;7.60;;;17.00;99.90;;;;;;5109108;28;20026;-86
2022/09/07 06:31:10;;;;;;;74.10;7.65;;;17.00;99.90;;;;;;5102391;28;20107;-86
2022/09/07 06:33:36;;;;;;;77.82;9.50;;;17.10;99.90;;;;;;5089670;28;20107;-87
2022/09/07 06:36:21;;;;;;;76.32;7.25;;;17.10;99.90;;;;;;5098444;28;20063;-88
2022/09/07 06:38:48;;;;;;;57.20;7.63;;;17.20;99.90;;;;;;5094445;28;20036;-91
2022/09/07 06:41:17;;;;;;;63.10;7.85;;;17.10;99.90;;;;;;5092660;28;20024;-85
2022/09/07 06:43:43;;;;;;;59.78;7.40;;;;;;;;;;5101079;28;20387;-85
2022/09/07 06:46:09;;;;;;;85.55;8.32;;;17.20;99.90;;;;;;5110276;28;20445;-91
2022/09/07 06:48:35;;;;;;;65.07;8.10;;;;;;;;;;5099728;28;20103;-94
2022/09/07 06:51:04;;;;;;;72.65;7.55;;;18.70;99.90;;;;;;5090205;28;20034;-87
2022/09/07 06:53:33;;;;;;;71.30;7.55;;;17.40;99.90;;;;;;5090588;28;20112;-88
2022/09/07 06:56:00;;;;;;;66.20;6.93;;;17.30;99.90;;;;;;5090885;28;20125;-87
2022/09/07 06:58:27;;;;;;;57.60;7.15;;;17.40;99.90;;;;;;5082983;28;20118;-86
2022/09/07 07:00:54;;;;;;;54.08;7.55;;;;;;;;;;5086356;28;20028;-88
2022/09/07 07:03:20;;;;;;;56.40;6.70;;;17.50;99.90;;;;;;5085250;28;20404;-94
2022/09/07 07:05:56;;;;;;;64.65;8.07;;;17.70;99.90;;;;;;5070854;28;20040;-91
2022/09/07 07:08:23;;;;;;;67.75;7.32;;;17.50;99.90;;;;;;5069610;28;20059;-88
2022/09/07 07:10:50;;;;;;;68.47;7.72;;;19.10;99.90;;;;;;5072048;28;20027;-90
2022/09/07 07:13:16;;;;;;;61.28;6.82;;;17.60;99.90;;;;;;5087306;28;20024;-88
2022/09/07 07:15:42;;;;;;;46.78;6.38;;;17.70;99.90;;;;;;5077447;28;20032;-86
2022/09/07 07:18:08;;;;;;;55.50;6.60;;;17.70;99.90;;;;;;5078107;28;20123;-89
2022/09/07 07:20:35;;;;;;;78.40;8.98;;;17.80;99.90;;;;;;5071470;28;20029;-87
2022/09/07 07:23:02;;;;;;;48.00;7.13;;;17.90;99.90;;;;;;5070731;28;20028;-93
2022/09/07 07:25:28;;;;;;;61.42;7.85;;;17.80;99.90;;;;;;5070103;28;20044;-87
2022/09/07 07:27:53;;;;;;;72.00;8.40;;;17.80;99.90;;;;;;5068790;28;20063;-88
2022/09/07 07:30:20;;;;;;;128.60;11.63;;;17.80;99.90;;;;;;5069148;28;20036;-92
2022/09/07 07:32:47;;;;;;;72.03;7.25;;;17.20;99.90;;;;;;5076113;28;20028;-86
2022/09/07 07:35:13;;;;;;;71.10;6.88;;;;;;;;;;5089262;28;20017;-91
2022/09/07 07:37:39;;;;;;;85.75;7.93;;;;;;;;;;5087483;28;20077;-86
2022/09/07 07:40:07;;;;;;;91.63;8.25;;;17.90;99.90;;;;;;5089258;28;20099;-91
2022/09/07 07:42:34;;;;;;;71.63;7.25;;;17.90;99.90;;;;;;5093944;28;20020;-85
2022/09/07 07:45:00;;;;;;;81.25;9.32;;;;;;;;;;5109062;28;20027;-86
2022/09/07 07:47:27;;;;;;;73.70;8.40;;;;;;;;;;5091474;28;20024;-89
2022/09/07 07:49:53;;;;;;;77.60;9.38;;;17.80;99.90;;;;;;5092573;28;20239;-83
2022/09/07 07:52:19;;;;;;;61.58;6.43;;;17.80;99.90;;;;;;5092168;28;20028;-91
2022/09/07 07:54:45;;;;;;;59.85;6.43;;;;;;;;;;5068576;28;20032;-85
2022/09/07 07:57:11;;;;;;;53.30;6.20;;;;;;;;;;5068454;28;20036;-87
2022/09/07 07:59:38;;;;;;;58.10;5.75;;;;;;;;;;5068771;28;20040;-89
2022/09/07 08:02:05;;;;;;;58.33;6.53;;;17.90;99.90;;;;;;5069394;28;20062;-85
2022/09/07 08:04:32;;;;;;;42.97;4.83;;;17.80;99.90;;;;;;5069443;28;20040;-91
2022/09/07 08:06:58;;;;;;;44.90;5.43;;;;;;;;;;5070099;28;20801;-93
2022/09/07 08:09:24;;;;;;;52.28;6.10;;;17.70;99.90;;;;;;5070020;28;20306;-93
2022/09/07 08:11:50;;;;;;;52.65;5.25;;;17.80;99.90;;;;;;5090042;28;20101;-86
2022/09/07 08:14:16;;;;;;;66.43;7.07;;;17.70;99.90;;;;;;5108786;28;20391;-85
2022/09/07 08:16:42;;;;;;;55.13;5.38;;;17.70;99.90;;;;;;5109000;28;20543;-88
2022/09/07 08:19:13;;;;;;;39.22;4.38;;;17.70;99.90;;;;;;5108789;28;20034;-87
2022/09/07 08:21:39;;;;;;;53.72;5.97;;;;;;;;;;5111610;28;20020;-86
2022/09/07 08:24:05;;;;;;;57.53;6.38;;;17.80;99.90;;;;;;5112772;28;20024;-86
2022/09/07 08:26:31;;;;;;;43.20;5.38;;;;;;;;;;5091957;28;20117;-88
2022/09/07 08:28:57;;;;;;;48.38;5.80;;;;;;;;;;5111588;28;20486;-87
2022/09/07 08:31:23;;;;;;;42.47;5.22;;;;;;;;;;5112626;28;20476;-86
2022/09/07 08:33:49;;;;;;;45.25;4.55;;;;;;;;;;5112627;28;20027;-90
2022/09/07 08:36:19;;;;;;;54.38;5.75;;;18.20;99.90;;;;;;5112573;28;20015;-88
2022/09/07 08:38:45;;;;;;;59.22;6.72;;;18.20;99.90;;;;;;5112300;28;20038;-88
2022/09/07 08:41:47;;;;;;;82.82;6.07;;;17.00;99.90;;;;;;5111635;28;20023;-87
2022/09/07 08:44:32;;;;;;;53.00;5.38;;;18.60;99.90;;;;;;5112579;28;20028;-88
2022/09/07 08:47:00;;;;;;;75.90;6.68;;;18.50;99.90;;;;;;5109481;28;20015;-85
2022/09/07 08:49:50;;;;;;;103.20;7.82;;;18.60;99.90;;;;;;5100687;28;20339;-86
2022/09/07 08:52:39;;;;;;;52.60;5.78;;;18.60;99.90;;;;;;5112394;28;20027;-91
2022/09/07 08:55:15;;;;;;;59.75;6.40;;;18.80;99.90;;;;;;5105853;28;20071;-89
2022/09/07 08:57:47;;;;;;;63.45;7.10;;;18.90;99.90;;;;;;5097764;28;20097;-88
2022/09/07 09:00:16;;;;;;;86.35;6.95;;;19.00;99.90;;;;;;5094919;28;20037;-86
2022/09/07 09:02:42;;;;;;;67.45;6.82;;;19.20;99.90;;;;;;5092901;28;20020;-89
2022/09/07 09:05:26;;;;;;;68.53;7.50;;;19.10;99.90;;;;;;5074961;28;20029;-89
2022/09/07 09:08:26;;;;;;;96.55;7.45;;;19.20;99.90;;;;;;5092549;28;20146;-89
2022/09/07 09:10:52;;;;;;;85.68;8.73;;;;;;;;;;5092881;28;20024;-85
2022/09/07 09:13:38;;;;;;;66.15;6.97;;;21.70;99.90;;;;;;5112379;28;20019;-86
2022/09/07 09:16:36;;;;;;;93.05;7.82;;;19.50;99.90;;;;;;5112875;28;20132;-87
2022/09/07 09:19:05;;;;;;;96.88;9.07;;;;;;;;;;5112690;28;20036;-86
2022/09/07 09:21:31;;;;;;;84.60;7.32;;;;;;;;;;5111090;28;20022;-85
2022/09/07 09:24:04;;;;;;;100.03;8.98;;;19.60;99.90;;;;;;5111925;28;20038;-86
2022/09/07 09:26:32;;;;;;;140.88;8.93;;;19.60;99.90;;;;;;5103631;28;20022;-85
2022/09/07 09:29:11;;;;;;;82.05;8.07;;;19.60;99.90;;;;;;5091275;28;20020;-85
2022/09/07 09:31:37;;;;;;;93.93;8.32;;;19.60;99.90;;;;;;5091025;28;20093;-85
2022/09/07 09:34:09;;;;;;;96.15;9.30;;;19.70;99.90;;;;;;5091724;28;20479;-86
2022/09/07 09:36:41;;;;;;;71.88;7.03;;;19.80;99.90;;;;;;5091579;28;20028;-93
2022/09/07 09:39:25;;;;;;;90.47;7.22;;;19.80;99.90;;;;;;5089785;28;20425;-85
2022/09/07 09:41:53;;;;;;;95.07;9.05;;;19.90;99.90;;;;;;5087484;28;20032;-89
2022/09/07 09:44:21;;;;;;;68.25;7.40;;;19.80;99.90;;;;;;5091109;28;20016;-85
2022/09/07 09:46:51;;;;;;;105.13;9.32;;;19.80;99.90;;;;;;5091344;28;20107;-85
2022/09/07 09:49:24;;;;;;;83.93;8.68;;;19.80;99.90;;;;;;5090874;28;20032;-85
2022/09/07 09:51:52;;;;;;;122.25;10.32;;;19.70;99.90;;;;;;5089258;28;20036;-84
2022/09/07 09:54:26;;;;;;;117.53;10.60;;;19.90;99.90;;;;;;5090507;28;20016;-86
2022/09/07 09:56:52;;;;;;;102.53;10.98;;;;;;;;;;5101238;28;20479;-86
2022/09/07 09:59:22;;;;;;;62.83;7.55;;;19.90;99.90;;;;;;5112378;28;20024;-86
2022/09/07 10:01:49;;;;;;;79.82;7.90;;;19.90;99.90;;;;;;5117399;28;20049;-85
2022/09/07 10:04:24;;;;;;;97.13;8.25;;;19.90;99.90;;;;;;5120167;28;20019;-93
2022/09/07 10:07:00;;;;;;;61.22;6.50;;;20.00;99.90;;;;;;5121247;28;20075;-94
2022/09/07 10:09:39;;;;;;;65.95;6.15;;;17.50;99.90;;;;;;5126255;28;20008;-90
2022/09/07 10:12:06;;;;;;;69.45;7.18;;;20.00;99.90;;;;;;5112363;28;20030;-93
2022/09/07 10:14:35;;;;;;;67.83;6.93;;;20.00;99.90;;;;;;5132717;27;20019;-91
2022/09/07 10:17:18;;;;;;;79.47;6.78;;;19.60;99.90;;;;;;5113431;28;20027;-88
2022/09/07 10:19:44;;;;;;;126.53;8.43;;;;;;;;;;5091479;28;20028;-88
2022/09/07 10:22:37;;;;;;;75.70;6.65;;;20.30;99.90;;;;;;5088910;28;20140;-87
2022/09/07 10:25:38;;;;;;;143.05;8.40;;;20.20;99.90;;;;;;5090947;28;20013;-90
2022/09/07 10:28:12;;;;;;;74.53;8.10;;;20.20;99.90;;;;;;5070959;28;20062;-88
2022/09/07 10:30:56;;;;;;;74.63;4.82;;;20.30;99.90;;;;;;5068675;28;20112;-88
2022/09/07 10:33:34;;;;;;;60.28;6.55;;;20.20;99.90;;;;;;5087833;28;20115;-88
2022/09/07 10:36:29;;;;;;;76.32;7.25;;;20.10;99.90;;;;;;5090458;28;20035;-89
2022/09/07 10:39:10;;;;;;;51.53;5.60;;;20.20;99.90;;;;;;5090057;28;20519;-88
2022/09/07 10:41:45;;;;;;;59.42;5.55;;;20.30;99.90;;;;;;5097478;28;20020;-88
2022/09/07 10:44:29;;;;;;;61.50;6.68;;;20.30;99.90;;;;;;5089519;28;20492;-90
2022/09/07 10:47:21;;;;;;;49.72;5.85;;;20.20;99.90;;;;;;5103079;28;20076;-88
2022/09/07 10:50:01;;;;;;;43.47;5.07;;;20.20;99.90;;;;;;5080622;28;20113;-88
2022/09/07 10:52:31;;;;;;;43.25;6.28;;;20.10;99.90;;;;;;5109244;28;20146;-88
2022/09/07 10:55:08;;;;;;;41.42;5.18;;;20.10;99.90;;;;;;5109117;28;20230;-90
2022/09/07 10:57:51;;;;;;;46.25;4.57;;;19.90;99.90;;;;;;5094415;28;20020;-88
2022/09/07 11:00:19;;;;;;;60.55;5.70;;;19.80;99.90;;;;;;5090113;28;20338;-92
2022/09/07 11:02:54;;;;;;;51.80;5.07;;;19.90;99.90;;;;;;5090096;28;20020;-89
2022/09/07 11:05:46;;;;;;;63.17;5.93;;;19.90;99.90;;;;;;5089776;28;20032;-91
2022/09/07 11:08:14;;;;;;;62.17;5.95;;;20.10;99.90;;;;;;5090470;28;20035;-89
2022/09/07 11:10:50;;;;;;;48.92;5.75;;;20.20;99.90;;;;;;5090169;28;20459;-87
2022/09/07 11:13:21;;;;;;;60.90;6.18;;;20.20;99.90;;;;;;5089856;28;20425;-93
2022/09/07 11:16:06;;;;;;;54.33;5.63;;;20.30;99.90;;;;;;5089932;28;20024;-87
2022/09/07 11:18:51;;;;;;;46.08;5.22;;;20.50;99.90;;;;;;5088381;28;20044;-92
2022/09/07 11:21:23;;;;;;;58.47;4.90;;;20.50;99.90;;;;;;5089843;28;20024;-93
2022/09/07 11:23:54;;;;;;;37.47;3.90;;;20.50;99.90;;;;;;5088584;28;20028;-87
2022/09/07 11:26:31;;;;;;;60.13;5.07;;;20.50;99.90;;;;;;5088299;28;20024;-88
2022/09/07 11:29:03;;;;;;;43.83;4.35;;;20.60;99.90;;;;;;5088741;28;20032;-88
2022/09/07 11:31:37;;;;;;;61.55;4.35;;;20.50;99.90;;;;;;5093886;28;20046;-87
2022/09/07 11:34:29;;;;;;;50.75;4.72;;;20.40;99.90;;;;;;5097329;28;20016;-90
2022/09/07 11:37:20;;;;;;;56.95;6.35;;;17.80;99.90;;;;;;5099482;28;20123;-87
2022/09/07 11:40:02;;;;;;;55.40;5.47;;;20.70;99.90;;;;;;5097595;28;20031;-91
2022/09/07 11:42:33;;;;;;;43.63;4.47;;;20.70;99.90;;;;;;5093706;28;20008;-86
2022/09/07 11:45:40;;;;;;;43.83;4.90;;;20.80;99.90;;;;;;5088938;28;20031;-91
2022/09/07 11:48:24;;;;;;;;;;;20.70;99.90;;;;;;5059559;28;20404;-88
2022/09/07 11:50:58;;;;;;;52.10;5.07;;;20.60;99.90;;;;;;5068696;28;19966;-86
2022/09/07 11:53:29;;;;;;;44.92;4.72;;;20.70;99.90;;;;;;5069042;28;20100;-86
2022/09/07 11:56:03;;;;;;;46.75;5.03;;;20.70;99.90;;;;;;5085931;28;20046;-88
2022/09/07 11:59:02;;;;;;;50.13;4.72;;;20.60;99.90;;;;;;5091569;28;20044;-87
2022/09/07 12:01:28;;;;;;;68.47;5.60;;;;;;;;;;5093183;28;20544;-88
2022/09/07 12:03:54;;;;;;;50.30;4.00;;;;;;;;;;5092985;28;20024;-90
2022/09/07 12:06:32;;;;;;;62.22;4.65;;;20.80;99.90;;;;;;5106022;28;20032;-91
2022/09/07 12:09:16;;;;;;;48.70;4.78;;;20.90;99.90;;;;;;5112402;28;20015;-92
2022/09/07 12:12:16;;;;;;;58.78;7.50;;;20.90;99.90;;;;;;5112150;28;20027;-89
2022/09/07 12:15:09;;;;;;;43.33;4.15;;;20.80;99.90;;;;;;5112173;28;20036;-88
2022/09/07 12:17:45;;;;;;;56.05;4.53;;;20.80;99.90;;;;;;5113559;28;20069;-89
2022/09/07 12:20:16;;;;;;;42.78;5.30;;;20.90;99.90;;;;;;5112680;28;20495;-90
2022/09/07 12:23:06;;;;;;;42.60;4.13;;;20.80;99.90;;;;;;5113354;28;20039;-90
2022/09/07 12:25:35;;;;;;;70.00;5.32;;;20.90;99.90;;;;;;5113051;28;20035;-88
2022/09/07 12:28:01;;;;;;;48.50;4.18;;;20.70;99.90;;;;;;5114279;28;20035;-88
2022/09/07 12:30:29;;;;;;;47.35;4.35;;;;;;;;;;5103968;28;20134;-95
2022/09/07 12:33:04;;;;;;;46.42;4.22;;;20.70;99.90;;;;;;5092505;28;20492;-88
2022/09/07 12:35:36;;;;;;;50.70;6.18;;;20.90;99.90;;;;;;5091551;28;20024;-90
2022/09/07 12:38:02;;;;;;;54.83;4.53;;;;;;;;;;5094686;28;20349;-86
2022/09/07 12:40:32;;;;;;;57.40;6.20;;;;;;;;;;5099886;28;20094;-87
2022/09/07 12:43:13;;;;;;;53.85;5.60;;;20.80;99.90;;;;;;5101743;28;20074;-88
2022/09/07 12:45:39;;;;;;;60.40;5.32;;;;;;;;;;5102437;28;20031;-87
2022/09/07 12:48:13;;;;;;;50.72;5.47;;;20.50;99.90;;;;;;5099394;28;20024;-86
2022/09/07 12:51:05;;;;;;;61.72;6.18;;;20.40;99.90;;;;;;5095251;28;20051;-94
2022/09/07 12:53:31;;;;;;;54.03;5.28;;;;;;;;;;5094737;28;20048;-88
2022/09/07 12:56:18;;;;;;;41.55;4.70;;;20.20;99.90;;;;;;5090914;28;20064;-89
2022/09/07 12:59:10;;;;;;;49.72;4.95;;;20.40;99.90;;;;;;5091696;28;20063;-91
2022/09/07 13:01:44;;;;;;;39.58;5.50;;;20.40;99.90;;;;;;5128352;27;20028;-92
2022/09/07 13:04:11;;;;;;;48.70;4.40;;;;;;;;;;5113271;28;20027;-90
2022/09/07 13:07:34;;;;;;;53.60;4.70;;;19.00;99.90;;;;;;5109749;28;20459;-90
2022/09/07 13:10:24;;;;;;;62.72;5.32;;;20.90;99.90;;;;;;5031965;28;20112;-91
2022/09/07 13:12:51;;;;;;;63.83;5.75;;;20.90;99.90;;;;;;5128194;27;20077;-89
2022/09/07 13:15:40;;;;;;;42.72;4.80;;;21.00;99.90;;;;;;5111900;28;20034;-91
2022/09/07 13:18:14;;;;;;;53.17;5.60;;;21.00;99.90;;;;;;5110743;28;20035;-89
2022/09/07 13:20:40;;;;;;;56.83;5.75;;;;;;;;;;5111755;28;20019;-90
2022/09/07 13:23:18;;;;;;;44.78;5.28;;;21.20;99.90;;;;;;5111696;28;20024;-91
2022/09/07 13:25:45;;;;;;;;;;;21.20;99.90;;;;;;5128474;27;20372;-88
2022/09/07 13:28:32;;;;;;;497.73;31.00;;;21.30;99.90;;;;;;5112918;27;19903;-87